Terminal Aerodrome Forecast
Issued by NWS

Home | Current Version | Previous Version | Text Only | Print | Product List | Glossary Off
Versions: 1 2 3 4 5 6 7 8 9 10 11 12 13 14 15 16 17 18 19

837
FTUS43 KICT 271139
TAFSLN
TAF
KSLN 271139Z 2712/2812 36010KT P6SM FEW025 SCT050 BKN250
     FM271300 14011KT P6SM SCT100 BKN250
     FM271700 13004KT P6SM SCT035=

USA.gov is the U.S. government's official web portal to all federal, state and local government web resources and services.